createdAt,value
2023-04-18T00:01:12.515Z,10.68
2023-04-18T00:03:39.708Z,10.54
2023-04-18T00:06:06.916Z,10.63
2023-04-18T00:08:36.850Z,10.70
2023-04-18T00:11:03.826Z,10.68
2023-04-18T00:13:32.972Z,10.55
2023-04-18T00:16:02.833Z,10.44
2023-04-18T00:18:29.751Z,10.38
2023-04-18T00:20:56.918Z,10.30
2023-04-18T00:23:28.335Z,10.38
2023-04-18T00:25:55.256Z,10.29
2023-04-18T00:28:22.104Z,10.35
2023-04-18T00:30:51.502Z,10.31
2023-04-18T00:33:18.825Z,10.53
2023-04-18T00:35:48.077Z,10.60
2023-04-18T00:38:14.990Z,10.37
2023-04-18T00:40:41.904Z,10.47
2023-04-18T00:43:08.874Z,10.50
2023-04-18T00:45:38.051Z,10.46
2023-04-18T00:48:05.225Z,10.40
2023-04-18T00:50:32.112Z,10.24
2023-04-18T00:52:59.086Z,10.20
2023-04-18T00:55:26.113Z,9.97
2023-04-18T00:57:53.510Z,9.84
2023-04-18T01:00:25.741Z,9.90
2023-04-18T01:02:55.713Z,9.73
2023-04-18T01:05:23.685Z,10.00
2023-04-18T01:08:00.836Z,9.94
2023-04-18T01:10:28.750Z,10.12
2023-04-18T01:13:17.196Z,10.09
2023-04-18T01:15:50.678Z,10.17
2023-04-18T01:18:20.756Z,9.92
2023-04-18T01:20:53.061Z,10.04
2023-04-18T01:23:22.957Z,10.10
2023-04-18T01:25:57.062Z,10.04
2023-04-18T01:28:24.476Z,9.95
2023-04-18T01:30:54.543Z,10.09
2023-04-18T01:33:23.745Z,9.97
2023-04-18T01:35:52.732Z,10.04
2023-04-18T01:38:22.758Z,10.08
2023-04-18T01:40:49.762Z,9.96
2023-04-18T01:43:16.664Z,10.21
2023-04-18T01:45:45.944Z,10.19
2023-04-18T01:48:12.767Z,10.02
2023-04-18T01:50:42.602Z,10.35
2023-04-18T01:53:09.703Z,10.34
2023-04-18T01:55:36.656Z,10.29
2023-04-18T01:58:03.558Z,10.17
2023-04-18T02:00:30.592Z,10.29
2023-04-18T02:03:01.814Z,10.19
2023-04-18T02:05:28.965Z,10.15
2023-04-18T02:07:55.987Z,10.08
2023-04-18T02:10:23.023Z,10.07
2023-04-18T02:12:49.871Z,9.96
2023-04-18T02:15:16.725Z,10.02
2023-04-18T02:17:43.615Z,9.94
2023-04-18T02:20:13.412Z,9.87
2023-04-18T02:22:40.287Z,9.87
2023-04-18T02:25:08.118Z,9.93
2023-04-18T02:27:37.569Z,9.97
2023-04-18T02:30:04.860Z,9.67
2023-04-18T02:32:31.783Z,9.58
2023-04-18T02:34:58.696Z,9.29
2023-04-18T02:37:25.609Z,9.24
2023-04-18T02:39:52.531Z,9.17
2023-04-18T02:42:19.483Z,9.18
2023-04-18T02:44:48.416Z,9.05
2023-04-18T02:47:15.290Z,9.00
2023-04-18T02:49:42.105Z,9.07
2023-04-18T02:52:14.120Z,8.95
2023-04-18T02:54:41.042Z,8.85
2023-04-18T02:57:07.894Z,8.81
2023-04-18T02:59:34.827Z,8.94
2023-04-18T03:02:01.712Z,9.10
2023-04-18T03:04:28.550Z,8.92
2023-04-18T03:06:56.122Z,8.79
2023-04-18T03:09:25.205Z,9.00
2023-04-18T03:11:52.118Z,9.06
2023-04-18T03:14:26.032Z,8.93
2023-04-18T03:16:55.183Z,8.97
2023-04-18T03:19:22.555Z,9.03
2023-04-18T03:21:49.416Z,9.01
2023-04-18T03:24:18.526Z,9.00
2023-04-18T03:26:47.960Z,9.03
2023-04-18T03:29:15.031Z,8.94
2023-04-18T03:31:44.475Z,9.03
2023-04-18T03:34:11.619Z,9.01
2023-04-18T03:36:38.695Z,9.21
2023-04-18T03:39:05.621Z,8.98
2023-04-18T03:41:34.658Z,9.03
2023-04-18T03:44:03.995Z,8.92
2023-04-18T03:46:30.974Z,9.00
2023-04-18T03:48:57.875Z,8.97
2023-04-18T03:51:24.755Z,8.68
2023-04-18T03:53:51.777Z,8.65
2023-04-18T03:56:21.487Z,8.62
2023-04-18T03:58:50.514Z,8.75
2023-04-18T04:01:19.630Z,8.66
2023-04-18T04:03:50.160Z,8.67
2023-04-18T04:06:17.927Z,8.70
2023-04-18T04:08:44.805Z,8.83
2023-04-18T04:11:14.299Z,8.65
2023-04-18T04:13:41.148Z,8.69
2023-04-18T04:16:08.321Z,8.66
2023-04-18T04:18:38.164Z,8.77
2023-04-18T04:21:08.239Z,8.69
2023-04-18T04:23:42.651Z,8.77
2023-04-18T04:26:11.756Z,8.64
2023-04-18T04:28:39.894Z,8.64
2023-04-18T04:31:08.461Z,8.71
2023-04-18T04:33:38.911Z,8.70
2023-04-18T04:36:07.779Z,8.88
2023-04-18T04:38:38.459Z,8.74
2023-04-18T04:41:09.352Z,8.54
2023-04-18T04:43:41.286Z,8.71
2023-04-18T04:46:13.765Z,8.71
2023-04-18T04:48:40.948Z,8.82
2023-04-18T04:51:07.825Z,8.94
2023-04-18T04:53:37.913Z,8.73
2023-04-18T04:56:04.930Z,8.73
2023-04-18T04:58:31.894Z,8.80
2023-04-18T05:00:58.773Z,8.85
2023-04-18T05:03:26.183Z,8.72
2023-04-18T05:05:53.781Z,8.94
2023-04-18T05:08:20.626Z,9.06
2023-04-18T05:10:50.102Z,9.00
2023-04-18T05:13:17.091Z,9.20
2023-04-18T05:15:46.283Z,8.95
2023-04-18T05:18:14.294Z,9.11
2023-04-18T05:20:44.359Z,9.24
2023-04-18T05:23:18.335Z,9.01
2023-04-18T05:25:45.264Z,9.03
2023-04-18T05:28:12.127Z,8.94
2023-04-18T05:30:40.130Z,8.95
2023-04-18T05:33:07.058Z,9.27
2023-04-18T05:35:33.990Z,9.15
2023-04-18T05:38:02.962Z,9.10
2023-04-18T05:40:31.049Z,9.28
2023-04-18T05:42:57.883Z,9.23
2023-04-18T05:45:27.041Z,9.34
2023-04-18T05:47:56.474Z,9.39
2023-04-18T05:50:26.084Z,9.51
2023-04-18T05:52:53.090Z,9.56
2023-04-18T05:55:20.031Z,9.22
2023-04-18T05:57:46.900Z,8.82
2023-04-18T06:00:14.603Z,9.31
2023-04-18T06:02:41.568Z,9.43
2023-04-18T06:05:09.486Z,9.83
2023-04-18T06:07:36.652Z,10.42
2023-04-18T06:10:05.629Z,10.35
2023-04-18T06:12:32.555Z,10.41
2023-04-18T06:14:59.545Z,10.20
2023-04-18T06:17:28.644Z,10.33
2023-04-18T06:19:55.603Z,10.42
2023-04-18T06:22:22.444Z,10.48
2023-04-18T06:24:49.301Z,10.51
2023-04-18T06:27:30.161Z,10.46
2023-04-18T06:29:57.851Z,10.40
2023-04-18T06:32:24.765Z,10.47
2023-04-18T06:34:52.954Z,10.56
2023-04-18T06:37:22.416Z,10.70
2023-04-18T06:39:51.535Z,10.87
2023-04-18T06:42:19.632Z,10.74
2023-04-18T06:44:47.800Z,11.04
2023-04-18T06:47:14.975Z,10.96
2023-04-18T06:49:41.824Z,10.91
2023-04-18T06:52:11.662Z,11.17
2023-04-18T06:54:38.500Z,11.39
2023-04-18T06:57:07.708Z,11.79
2023-04-18T06:59:37.621Z,11.86
2023-04-18T07:02:10.756Z,12.03
2023-04-18T07:04:37.751Z,12.13
2023-04-18T07:07:07.099Z,12.28
2023-04-18T07:09:34.046Z,12.71
2023-04-18T07:12:03.372Z,13.31
2023-04-18T07:14:34.182Z,13.23
2023-04-18T07:17:01.970Z,13.14
2023-04-18T07:19:28.849Z,13.44
2023-04-18T07:21:55.948Z,13.51
2023-04-18T07:24:23.633Z,13.56
2023-04-18T07:26:55.069Z,13.59
2023-04-18T07:29:22.334Z,14.05
2023-04-18T07:31:49.986Z,13.87
2023-04-18T07:34:17.408Z,13.59
2023-04-18T07:36:44.369Z,13.60
2023-04-18T07:39:13.544Z,13.96
2023-04-18T07:41:43.341Z,14.06
2023-04-18T07:44:10.815Z,13.87
2023-04-18T07:46:37.733Z,13.93
2023-04-18T07:49:04.735Z,14.69
2023-04-18T07:51:31.713Z,14.57
2023-04-18T07:54:01.654Z,14.58
2023-04-18T07:56:31.034Z,14.54
2023-04-18T07:58:58.016Z,14.48
2023-04-18T08:01:27.890Z,14.28
2023-04-18T08:03:56.632Z,14.41
2023-04-18T08:06:23.769Z,14.62
2023-04-18T08:08:50.754Z,14.61
2023-04-18T08:11:20.197Z,14.56
2023-04-18T08:13:50.220Z,14.63
2023-04-18T08:16:19.312Z,14.63
2023-04-18T08:18:48.773Z,14.65
2023-04-18T08:21:15.724Z,14.16
2023-04-18T08:23:42.654Z,14.38
2023-04-18T08:26:09.574Z,14.09
2023-04-18T08:28:38.603Z,13.88
2023-04-18T08:31:08.061Z,13.60
2023-04-18T08:33:35.052Z,13.92
2023-04-18T08:36:01.945Z,14.17
2023-04-18T08:38:31.164Z,13.37
2023-04-18T08:40:58.122Z,13.32
2023-04-18T08:43:28.136Z,13.13
2023-04-18T08:46:00.105Z,12.99
2023-04-18T08:48:33.190Z,12.58
2023-04-18T08:51:03.039Z,12.91
2023-04-18T08:53:32.476Z,12.72
2023-04-18T08:56:00.324Z,12.67
2023-04-18T08:58:27.579Z,12.34
2023-04-18T09:00:57.702Z,12.58
2023-04-18T09:03:41.063Z,12.24
2023-04-18T09:06:13.821Z,12.75
2023-04-18T09:08:43.699Z,13.06
2023-04-18T09:11:31.766Z,13.21
2023-04-18T09:13:59.458Z,12.92
2023-04-18T09:16:27.815Z,12.43
2023-04-18T09:19:14.571Z,12.25
2023-04-18T09:21:48.726Z,12.75
2023-04-18T09:24:22.799Z,13.33
2023-04-18T09:26:51.345Z,13.04
2023-04-18T09:29:22.298Z,13.23
2023-04-18T09:32:01.754Z,13.56
2023-04-18T09:34:33.982Z,13.64
2023-04-18T09:37:16.776Z,13.95
2023-04-18T09:39:44.752Z,14.19
2023-04-18T09:42:12.433Z,13.69
2023-04-18T09:44:59.611Z,14.34
2023-04-18T09:47:28.110Z,13.79
2023-04-18T09:49:57.458Z,14.25
2023-04-18T09:52:33.003Z,14.67
2023-04-18T09:55:02.921Z,14.37
2023-04-18T09:57:31.711Z,14.76
2023-04-18T10:00:25.387Z,14.44
2023-04-18T10:03:09.896Z,14.71
2023-04-18T10:05:40.481Z,15.01
2023-04-18T10:08:09.404Z,14.77
2023-04-18T10:10:38.557Z,15.31
2023-04-18T10:13:08.495Z,15.59
2023-04-18T10:15:36.078Z,14.91
2023-04-18T10:18:10.269Z,14.95
2023-04-18T10:20:41.742Z,15.05
2023-04-18T10:23:37.360Z,14.92
2023-04-18T10:26:11.158Z,14.65
2023-04-18T10:28:54.649Z,15.17
2023-04-18T10:31:24.054Z,15.83
2023-04-18T10:34:05.385Z,16.14
2023-04-18T10:36:33.682Z,15.88
2023-04-18T10:39:06.142Z,16.04
2023-04-18T10:41:38.330Z,16.46
2023-04-18T10:44:15.554Z,16.53
2023-04-18T10:46:50.451Z,16.51
2023-04-18T10:49:25.354Z,16.01
2023-04-18T10:51:59.356Z,15.96
2023-04-18T10:54:30.840Z,15.85
2023-04-18T10:57:03.354Z,15.85
2023-04-18T10:59:36.459Z,15.71
2023-04-18T11:02:30.792Z,15.67
2023-04-18T11:05:00.219Z,15.80
2023-04-18T11:07:37.082Z,15.61
2023-04-18T11:10:09.611Z,15.86
2023-04-18T11:12:42.927Z,15.77
2023-04-18T11:15:22.289Z,15.68
2023-04-18T11:18:06.423Z,16.35
2023-04-18T11:20:47.356Z,16.12
2023-04-18T11:23:22.853Z,16.56
2023-04-18T11:25:53.697Z,16.64
2023-04-18T11:28:22.351Z,16.46
2023-04-18T11:30:50.287Z,16.68
2023-04-18T11:33:20.187Z,16.13
2023-04-18T11:35:47.233Z,16.12
2023-04-18T11:38:16.799Z,15.92
2023-04-18T11:40:52.440Z,15.91
2023-04-18T11:43:25.369Z,15.87
2023-04-18T11:46:02.600Z,15.72
2023-04-18T11:48:42.127Z,16.14
2023-04-18T11:51:34.020Z,16.15
2023-04-18T11:54:05.902Z,16.23
2023-04-18T11:56:34.577Z,16.32
2023-04-18T11:59:09.561Z,16.28
2023-04-18T12:01:36.450Z,16.87
2023-04-18T12:04:07.999Z,16.68
2023-04-18T12:06:53.707Z,16.59
2023-04-18T12:09:26.379Z,16.65
2023-04-18T12:12:01.012Z,16.26
2023-04-18T12:14:28.558Z,16.34
2023-04-18T12:16:56.208Z,16.09
2023-04-18T12:19:29.906Z,16.58
2023-04-18T12:22:05.100Z,16.84
2023-04-18T12:24:32.412Z,17.04
2023-04-18T12:27:00.098Z,17.33
2023-04-18T12:29:31.206Z,17.22
2023-04-18T12:32:01.095Z,16.88
2023-04-18T12:34:30.685Z,16.85
2023-04-18T12:36:57.578Z,16.72
2023-04-18T12:39:25.910Z,16.93
2023-04-18T12:41:52.788Z,16.58
2023-04-18T12:44:19.654Z,16.99
2023-04-18T12:46:46.660Z,16.69
2023-04-18T12:49:13.803Z,16.98
2023-04-18T12:51:40.734Z,16.99
2023-04-18T12:54:07.583Z,16.67
2023-04-18T12:56:36.697Z,16.56
2023-04-18T12:59:06.557Z,16.81
2023-04-18T13:01:33.478Z,16.96
2023-04-18T13:04:12.270Z,16.73
2023-04-18T13:06:39.615Z,16.52
2023-04-18T13:09:10.299Z,16.79
2023-04-18T13:11:40.124Z,16.66
2023-04-18T13:14:09.613Z,16.66
2023-04-18T13:16:40.552Z,16.84
2023-04-18T13:19:08.598Z,16.51
2023-04-18T13:21:35.475Z,16.48
2023-04-18T13:24:05.385Z,16.63
2023-04-18T13:26:35.591Z,16.77
2023-04-18T13:29:03.888Z,16.58
2023-04-18T13:31:31.469Z,16.95
2023-04-18T13:34:03.133Z,17.23
2023-04-18T13:36:37.229Z,16.96
2023-04-18T13:39:10.550Z,17.22
2023-04-18T13:41:37.481Z,17.54
2023-04-18T13:44:04.622Z,17.11
2023-04-18T13:46:34.611Z,17.23
2023-04-18T13:49:04.785Z,17.26
2023-04-18T13:51:31.700Z,17.41
2023-04-18T13:54:00.857Z,17.25
2023-04-18T13:56:28.256Z,17.26
2023-04-18T13:58:55.939Z,16.88
2023-04-18T14:01:22.818Z,17.15
2023-04-18T14:03:52.053Z,17.47
2023-04-18T14:06:23.482Z,16.88
2023-04-18T14:08:53.151Z,16.62
2023-04-18T14:11:20.997Z,16.60
2023-04-18T14:13:50.551Z,16.74
2023-04-18T14:16:19.111Z,16.41
2023-04-18T14:18:48.614Z,16.82
2023-04-18T14:21:15.486Z,16.53
2023-04-18T14:23:42.394Z,16.37
2023-04-18T14:26:09.276Z,16.37
2023-04-18T14:28:36.224Z,16.65
2023-04-18T14:31:05.455Z,16.88
2023-04-18T14:33:37.449Z,16.77
2023-04-18T14:36:04.856Z,17.04
2023-04-18T14:38:34.084Z,16.78
2023-04-18T14:41:01.218Z,17.02
2023-04-18T14:43:30.967Z,16.67
2023-04-18T14:45:59.482Z,16.77
2023-04-18T14:48:27.856Z,17.22
2023-04-18T14:50:59.712Z,16.98
2023-04-18T14:53:31.482Z,16.97
2023-04-18T14:56:00.757Z,16.84
2023-04-18T14:58:30.136Z,16.84
2023-04-18T15:00:57.143Z,16.93
2023-04-18T15:03:31.458Z,17.00
2023-04-18T15:06:00.660Z,16.98
2023-04-18T15:08:27.679Z,16.68
2023-04-18T15:10:59.314Z,16.47
2023-04-18T15:13:31.310Z,16.39
2023-04-18T15:15:58.318Z,16.61
2023-04-18T15:18:25.274Z,16.71
2023-04-18T15:20:52.254Z,16.47
2023-04-18T15:23:19.302Z,16.39
2023-04-18T15:25:49.101Z,16.29
2023-04-18T15:28:17.752Z,16.50
2023-04-18T15:30:44.774Z,16.20
2023-04-18T15:33:13.531Z,16.40
2023-04-18T15:35:40.472Z,16.57
2023-04-18T15:38:09.823Z,16.08
2023-04-18T15:40:36.688Z,16.03
2023-04-18T15:43:06.392Z,16.09
2023-04-18T15:45:36.126Z,16.02
2023-04-18T15:48:05.829Z,15.99
2023-04-18T15:50:36.747Z,15.94
2023-04-18T15:53:03.654Z,15.99
2023-04-18T15:55:30.498Z,15.63
2023-04-18T15:58:00.438Z,15.95
2023-04-18T16:00:27.658Z,15.63
2023-04-18T16:02:59.163Z,15.73
2023-04-18T16:05:26.173Z,15.48
2023-04-18T16:07:53.952Z,15.80
2023-04-18T16:10:20.880Z,15.78
2023-04-18T16:12:50.317Z,15.78
2023-04-18T16:15:17.322Z,15.70
2023-04-18T16:17:46.716Z,15.98
2023-04-18T16:20:16.127Z,16.02
2023-04-18T16:22:43.104Z,15.86
2023-04-18T16:25:12.814Z,15.37
2023-04-18T16:27:42.672Z,15.51
2023-04-18T16:30:12.329Z,15.44
2023-04-18T16:32:41.563Z,15.74
2023-04-18T16:35:10.233Z,15.74
2023-04-18T16:37:41.142Z,15.99
2023-04-18T16:40:11.230Z,16.14
2023-04-18T16:42:41.134Z,15.85
2023-04-18T16:45:10.532Z,15.73
2023-04-18T16:47:40.742Z,15.66
2023-04-18T16:50:12.476Z,15.31
2023-04-18T16:52:39.830Z,15.57
2023-04-18T16:55:09.594Z,15.49
2023-04-18T16:57:36.566Z,15.48
2023-04-18T17:00:05.357Z,15.77
2023-04-18T17:02:35.045Z,15.63
2023-04-18T17:05:02.498Z,15.77
2023-04-18T17:07:31.623Z,15.61
2023-04-18T17:09:58.683Z,15.69
2023-04-18T17:12:27.942Z,15.60
2023-04-18T17:14:54.884Z,15.52
2023-04-18T17:17:23.586Z,15.26
2023-04-18T17:19:50.769Z,15.54
2023-04-18T17:22:17.794Z,15.35
2023-04-18T17:24:44.743Z,15.73
2023-04-18T17:27:14.079Z,15.53
2023-04-18T17:29:41.393Z,15.49
2023-04-18T17:32:08.360Z,15.41
2023-04-18T17:34:37.464Z,15.40
2023-04-18T17:37:05.390Z,15.45
2023-04-18T17:39:32.832Z,15.33
2023-04-18T17:42:01.040Z,15.11
2023-04-18T17:44:27.947Z,14.96
2023-04-18T17:46:57.186Z,14.91
2023-04-18T17:49:24.095Z,14.97
2023-04-18T17:51:50.978Z,14.84
2023-04-18T17:54:20.031Z,14.85
2023-04-18T17:56:48.666Z,14.57
2023-04-18T17:59:17.885Z,14.41
2023-04-18T18:01:49.497Z,14.36
2023-04-18T18:04:16.734Z,14.32
2023-04-18T18:06:57.154Z,14.62
2023-04-18T18:09:24.060Z,14.65
2023-04-18T18:11:55.830Z,14.51
2023-04-18T18:14:23.453Z,14.38
2023-04-18T18:16:52.870Z,14.36
2023-04-18T18:19:22.767Z,14.14
2023-04-18T18:21:49.790Z,14.20
2023-04-18T18:24:16.806Z,14.15
2023-04-18T18:26:43.831Z,13.92
2023-04-18T18:29:13.264Z,13.83
2023-04-18T18:31:43.021Z,13.87
2023-04-18T18:34:10.336Z,13.76
2023-04-18T18:36:40.195Z,13.68
2023-04-18T18:39:07.148Z,13.82
2023-04-18T18:41:36.294Z,13.89
2023-04-18T18:44:03.224Z,13.81
2023-04-18T18:46:30.200Z,13.73
2023-04-18T18:48:57.175Z,13.83
2023-04-18T18:51:27.121Z,13.90
2023-04-18T18:53:57.448Z,13.85
2023-04-18T18:56:24.712Z,13.54
2023-04-18T18:58:56.133Z,13.56
2023-04-18T19:01:23.403Z,13.53
2023-04-18T19:03:53.082Z,13.46
2023-04-18T19:06:20.208Z,13.48
2023-04-18T19:08:47.182Z,13.57
2023-04-18T19:11:16.298Z,13.72
2023-04-18T19:13:45.795Z,13.53
2023-04-18T19:16:13.131Z,13.35
2023-04-18T19:18:41.437Z,13.58
2023-04-18T19:21:08.386Z,13.62
2023-04-18T19:26:03.020Z,13.19
2023-04-18T19:28:30.531Z,13.21
2023-04-18T19:30:57.520Z,13.23
2023-04-18T19:33:27.544Z,13.43
2023-04-18T19:35:54.373Z,13.45
2023-04-18T19:38:24.995Z,13.58
2023-04-18T19:40:54.317Z,13.62
2023-04-18T19:43:23.707Z,13.51
2023-04-18T19:45:52.061Z,13.60
2023-04-18T19:48:27.614Z,13.78
2023-04-18T19:50:56.617Z,13.69
2023-04-18T19:53:23.885Z,13.74
2023-04-18T19:55:50.932Z,13.79
2023-04-18T19:58:39.793Z,13.50
2023-04-18T20:01:09.998Z,13.58
2023-04-18T20:03:37.082Z,13.29
2023-04-18T20:06:05.679Z,13.44
2023-04-18T20:08:39.306Z,13.19
2023-04-18T20:11:11.121Z,13.25
2023-04-18T20:13:38.252Z,13.13
2023-04-18T20:16:07.278Z,12.97
2023-04-18T20:18:35.972Z,12.93
2023-04-18T20:21:07.884Z,13.11
2023-04-18T20:23:40.498Z,13.07
2023-04-18T20:26:07.507Z,12.85
2023-04-18T20:28:34.882Z,12.88
2023-04-18T20:31:03.295Z,12.79
2023-04-18T20:33:30.436Z,12.69
2023-04-18T20:36:00.367Z,12.57
2023-04-18T20:38:29.798Z,12.57
2023-04-18T20:40:58.821Z,12.77
2023-04-18T20:43:28.092Z,12.64
2023-04-18T20:45:57.978Z,12.41
2023-04-18T20:48:25.064Z,12.31
2023-04-18T20:50:52.366Z,12.35
2023-04-18T20:53:21.259Z,12.58
2023-04-18T20:55:48.828Z,12.51
2023-04-18T20:58:15.931Z,12.42
2023-04-18T21:00:44.564Z,12.29
2023-04-18T21:03:17.309Z,11.80
2023-04-18T21:05:45.577Z,11.76
2023-04-18T21:08:15.066Z,11.78
2023-04-18T21:10:44.086Z,11.80
2023-04-18T21:13:12.606Z,11.57
2023-04-18T21:15:42.047Z,11.64
2023-04-18T21:18:08.985Z,11.46
2023-04-18T21:20:36.877Z,11.42
2023-04-18T21:23:03.913Z,11.38
2023-04-18T21:25:30.832Z,11.43
2023-04-18T21:28:00.213Z,11.40
2023-04-18T21:30:27.351Z,11.46
2023-04-18T21:32:54.239Z,11.39
2023-04-18T21:35:23.378Z,11.49
2023-04-18T21:37:51.755Z,11.51
2023-04-18T21:40:18.917Z,11.23
2023-04-18T21:42:46.537Z,11.26
2023-04-18T21:45:14.732Z,11.21
2023-04-18T21:47:46.810Z,11.11
2023-04-18T21:50:14.101Z,11.21
2023-04-18T21:52:43.132Z,11.07
2023-04-18T21:55:10.235Z,10.97
2023-04-18T21:57:39.366Z,10.99
2023-04-18T22:00:11.246Z,10.81
2023-04-18T22:02:40.215Z,10.74
2023-04-18T22:05:08.033Z,10.73
2023-04-18T22:07:50.140Z,10.85
2023-04-18T22:10:24.792Z,10.60
2023-04-18T22:12:56.310Z,10.57
2023-04-18T22:15:27.172Z,10.50
2023-04-18T22:17:54.486Z,10.48
2023-04-18T22:20:21.707Z,10.39
2023-04-18T22:22:51.549Z,10.39
2023-04-18T22:25:21.468Z,10.44
2023-04-18T22:27:48.360Z,10.53
2023-04-18T22:30:17.525Z,10.39
2023-04-18T22:32:44.528Z,10.23
2023-04-18T22:35:13.934Z,10.35
2023-04-18T22:37:43.991Z,10.52
2023-04-18T22:40:12.484Z,10.38
2023-04-18T22:42:39.817Z,10.35
2023-04-18T22:45:07.834Z,10.40
2023-04-18T22:47:34.775Z,10.60
2023-04-18T22:50:01.676Z,10.60
2023-04-18T22:52:29.686Z,10.57
2023-04-18T22:54:56.712Z,10.57
2023-04-18T22:57:25.947Z,10.52
2023-04-18T22:59:52.784Z,10.49
2023-04-18T23:02:19.783Z,10.41
2023-04-18T23:04:47.000Z,10.26
2023-04-18T23:07:13.944Z,10.38
2023-04-18T23:09:41.151Z,10.34
2023-04-18T23:12:08.087Z,10.18
2023-04-18T23:14:35.887Z,10.17
2023-04-18T23:17:05.368Z,10.23
2023-04-18T23:19:34.475Z,10.11
2023-04-18T23:22:01.335Z,10.11
2023-04-18T23:24:30.709Z,10.29
2023-04-18T23:26:58.102Z,10.34
2023-04-18T23:29:25.002Z,10.26
2023-04-18T23:31:51.910Z,10.14
2023-04-18T23:34:21.811Z,10.26
2023-04-18T23:36:48.768Z,10.14
2023-04-18T23:39:18.363Z,10.21
2023-04-18T23:41:45.636Z,10.29
2023-04-18T23:44:15.041Z,10.31
2023-04-18T23:46:42.228Z,10.24
2023-04-18T23:49:09.214Z,10.19
2023-04-18T23:51:36.238Z,10.16
2023-04-18T23:54:05.564Z,10.03
2023-04-18T23:56:33.528Z,10.03
2023-04-18T23:59:00.369Z,9.98
